Time,TemperatureF,DewpointF,PressureIn,WindDirection,WindDirectionDegrees,WindSpeedMPH,WindSpeedGustMPH,Humidity,HourlyPrecipIn,Conditions,Clouds,dailyrainin,SolarRadiationWatts/m^2,SoftwareType,DateUTC
2013-07-29 00:02:00,51.0,48.0,-100.00,NNW,337,4.0,12.0,89,0.00,,,0.23,0.000000,,2013-07-29 05:02:00,
2013-07-29 00:12:00,51.0,48.0,-100.00,NNW,337,4.0,12.0,89,0.00,,,0.23,0.000000,,2013-07-29 05:12:00,
2013-07-29 00:43:00,51.0,48.0,-100.00,NW,326,4.0,10.0,91,0.00,,,0.23,0.000000,,2013-07-29 05:43:00,
2013-07-29 00:53:00,51.0,48.0,-100.00,NW,326,4.0,10.0,91,0.00,,,0.23,0.000000,,2013-07-29 05:53:00,
2013-07-29 01:02:00,51.0,48.0,-100.00,NW,326,4.0,10.0,91,0.00,,,0.23,0.000000,,2013-07-29 06:02:00,
2013-07-29 01:12:00,51.0,48.0,-100.00,NW,326,4.0,10.0,91,0.00,,,0.23,0.000000,,2013-07-29 06:12:00,
2013-07-29 01:43:00,50.0,48.0,-100.00,NW,314,3.0,11.0,93,0.00,,,0.23,0.000000,,2013-07-29 06:43:00,
2013-07-29 01:52:00,50.0,48.0,-100.00,NW,314,3.0,11.0,93,0.00,,,0.23,0.000000,,2013-07-29 06:52:00,
2013-07-29 02:02:00,50.0,48.0,-100.00,NW,314,3.0,11.0,93,0.00,,,0.23,0.000000,,2013-07-29 07:02:00,
2013-07-29 02:12:00,50.0,48.0,-100.00,NW,314,3.0,11.0,93,0.00,,,0.23,0.000000,,2013-07-29 07:12:00,
2013-07-29 02:43:00,51.0,49.0,-100.00,NW,308,2.0,8.0,94,0.00,,,0.23,0.000000,,2013-07-29 07:43:00,
2013-07-29 02:53:00,51.0,49.0,-100.00,NW,308,2.0,8.0,94,0.00,,,0.23,0.000000,,2013-07-29 07:53:00,
2013-07-29 03:02:00,51.0,49.0,-100.00,NW,308,2.0,8.0,94,0.00,,,0.23,0.000000,,2013-07-29 08:02:00,
2013-07-29 03:12:00,51.0,49.0,-100.00,NW,308,2.0,8.0,94,0.00,,,0.23,0.000000,,2013-07-29 08:12:00,
2013-07-29 03:33:00,51.0,49.0,-100.00,WNW,292,3.0,5.0,93,0.00,,,0.23,0.000000,,2013-07-29 08:33:00,
2013-07-29 03:42:00,51.0,49.0,-100.00,WNW,292,3.0,5.0,93,0.00,,,0.23,0.000000,,2013-07-29 08:42:00,
2013-07-29 03:52:00,51.0,49.0,-100.00,WNW,292,3.0,5.0,93,0.00,,,0.23,0.000000,,2013-07-29 08:52:00,
2013-07-29 04:02:00,51.0,49.0,-100.00,WNW,292,3.0,5.0,93,0.00,,,0.23,0.000000,,2013-07-29 09:02:00,
2013-07-29 04:12:00,51.0,49.0,-100.00,WNW,292,3.0,5.0,93,0.00,,,0.23,0.000000,,2013-07-29 09:12:00,
2013-07-29 04:13:00,52.0,50.0,-100.00,NW,323,3.0,10.0,92,0.00,,,0.23,0.000000,,2013-07-29 09:13:00,
2013-07-29 04:33:00,52.0,50.0,-100.00,NW,323,3.0,10.0,92,0.00,,,0.23,0.000000,,2013-07-29 09:33:00,
2013-07-29 04:43:00,52.0,50.0,-100.00,NW,323,3.0,10.0,92,0.00,,,0.23,0.000000,,2013-07-29 09:43:00,
2013-07-29 04:53:00,52.0,50.0,-100.00,NW,323,3.0,10.0,92,0.00,,,0.23,0.000000,,2013-07-29 09:53:00,
2013-07-29 05:04:00,52.0,50.0,-100.00,NW,323,3.0,10.0,92,0.00,,,0.23,0.000000,,2013-07-29 10:04:00,
2013-07-29 05:13:00,51.0,49.0,-100.00,WNW,293,3.0,10.0,94,0.00,,,0.23,0.000000,,2013-07-29 10:13:00,
2013-07-29 05:39:00,51.0,49.0,-100.00,WNW,293,3.0,10.0,94,0.00,,,0.23,0.000000,,2013-07-29 10:39:00,
2013-07-29 05:49:00,51.0,49.0,-100.00,WNW,293,3.0,10.0,94,0.00,,,0.23,0.000000,,2013-07-29 10:49:00,
2013-07-29 05:55:00,51.0,49.0,-100.00,WNW,293,3.0,10.0,94,0.00,,,0.23,0.000000,,2013-07-29 10:55:00,
2013-07-29 06:05:00,51.0,49.0,-100.00,WNW,293,3.0,10.0,94,0.00,,,0.23,0.000000,,2013-07-29 11:05:00,
2013-07-29 06:13:00,49.0,48.0,-100.00,West,273,3.0,6.0,97,0.00,,,0.23,9.000000,,2013-07-29 11:13:00,
2013-07-29 06:48:00,49.0,48.0,-100.00,West,273,3.0,6.0,97,0.00,,,0.23,9.000000,,2013-07-29 11:48:00,
2013-07-29 06:59:00,49.0,48.0,-100.00,West,273,3.0,6.0,97,0.00,,,0.23,9.000000,,2013-07-29 11:59:00,
2013-07-29 07:09:00,49.0,48.0,-100.00,West,273,3.0,6.0,97,0.00,,,0.23,9.000000,,2013-07-29 12:09:00,
2013-07-29 07:13:00,54.0,49.0,-100.00,NW,322,3.0,7.0,84,0.00,,,0.23,138.000000,,2013-07-29 12:13:00,
2013-07-29 07:49:00,54.0,49.0,-100.00,NW,322,3.0,7.0,84,0.00,,,0.23,138.000000,,2013-07-29 12:49:00,
2013-07-29 07:58:00,54.0,49.0,-100.00,NW,322,3.0,7.0,84,0.00,,,0.23,138.000000,,2013-07-29 12:58:00,
2013-07-29 08:03:00,54.0,49.0,-100.00,NW,322,3.0,7.0,84,0.00,,,0.23,138.000000,,2013-07-29 13:03:00,
2013-07-29 08:13:00,59.0,51.0,-100.00,NW,322,3.0,11.0,74,0.00,,,0.20,328.000000,,2013-07-29 13:13:00,
2013-07-29 08:45:00,59.0,51.0,-100.00,NW,322,3.0,11.0,74,0.00,,,0.20,328.000000,,2013-07-29 13:45:00,
2013-07-29 08:57:00,59.0,51.0,-100.00,NW,322,3.0,11.0,74,0.00,,,0.20,328.000000,,2013-07-29 13:57:00,
2013-07-29 09:06:00,59.0,51.0,-100.00,NW,322,3.0,11.0,74,0.00,,,0.20,328.000000,,2013-07-29 14:06:00,
2013-07-29 09:13:00,63.0,51.0,-100.00,NW,316,5.0,9.0,64,0.00,,,0.09,516.000000,,2013-07-29 14:13:00,
2013-07-29 09:48:00,63.0,51.0,-100.00,NW,316,5.0,9.0,64,0.00,,,0.09,516.000000,,2013-07-29 14:48:00,
2013-07-29 09:57:00,63.0,51.0,-100.00,NW,316,5.0,9.0,64,0.00,,,0.09,516.000000,,2013-07-29 14:57:00,
2013-07-29 10:08:00,63.0,51.0,-100.00,NW,316,5.0,9.0,64,0.00,,,0.09,516.000000,,2013-07-29 15:08:00,
2013-07-29 10:13:00,67.0,51.0,-100.00,NW,308,4.0,9.0,57,0.00,,,0.02,688.000000,,2013-07-29 15:13:00,
2013-07-29 10:46:00,67.0,51.0,-100.00,NW,308,4.0,9.0,57,0.00,,,0.02,688.000000,,2013-07-29 15:46:00,
2013-07-29 10:56:00,67.0,51.0,-100.00,NW,308,4.0,9.0,57,0.00,,,0.02,688.000000,,2013-07-29 15:56:00,
2013-07-29 11:07:00,67.0,51.0,-100.00,NW,308,4.0,9.0,57,0.00,,,0.02,688.000000,,2013-07-29 16:07:00,
2013-07-29 11:13:00,69.0,50.0,-100.00,NNW,336,3.0,10.0,51,0.00,,,0.01,831.000000,,2013-07-29 16:13:00,
2013-07-29 11:48:00,69.0,50.0,-100.00,NNW,336,3.0,10.0,51,0.00,,,0.01,831.000000,,2013-07-29 16:48:00,
2013-07-29 11:57:00,69.0,50.0,-100.00,NNW,336,3.0,10.0,51,0.00,,,0.01,831.000000,,2013-07-29 16:57:00,
2013-07-29 12:08:00,69.0,50.0,-100.00,NNW,336,3.0,10.0,51,0.00,,,0.01,831.000000,,2013-07-29 17:08:00,
2013-07-29 12:13:00,72.0,51.0,-100.00,West,276,5.0,10.0,48,0.00,,,0.01,929.000000,,2013-07-29 17:13:00,
2013-07-29 12:45:00,72.0,51.0,-100.00,West,276,5.0,10.0,48,0.00,,,0.01,929.000000,,2013-07-29 17:45:00,
2013-07-29 12:59:00,72.0,51.0,-100.00,West,276,5.0,10.0,48,0.00,,,0.01,929.000000,,2013-07-29 17:59:00,
2013-07-29 13:06:00,72.0,51.0,-100.00,West,276,5.0,10.0,48,0.00,,,0.01,929.000000,,2013-07-29 18:06:00,
2013-07-29 13:13:00,73.0,49.0,-100.00,WNW,303,5.0,10.0,43,0.00,,,0.01,999.000000,,2013-07-29 18:13:00,
2013-07-29 13:47:00,73.0,49.0,-100.00,WNW,303,5.0,10.0,43,0.00,,,0.01,999.000000,,2013-07-29 18:47:00,
2013-07-29 13:59:00,73.0,49.0,-100.00,WNW,303,5.0,10.0,43,0.00,,,0.01,999.000000,,2013-07-29 18:59:00,
2013-07-29 14:13:00,73.0,49.0,-100.00,NNW,335,4.0,10.0,42,0.00,,,0.01,936.000000,,2013-07-29 19:13:00,
2013-07-29 14:48:00,73.0,49.0,-100.00,NNW,335,4.0,10.0,42,0.00,,,0.01,936.000000,,2013-07-29 19:48:00,
2013-07-29 15:07:00,73.0,49.0,-100.00,NNW,335,4.0,10.0,42,0.00,,,0.01,936.000000,,2013-07-29 20:07:00,
2013-07-29 15:13:00,76.0,51.0,-100.00,WNW,290,3.0,9.0,41,0.00,,,0.01,834.000000,,2013-07-29 20:13:00,
2013-07-29 15:49:00,76.0,51.0,-100.00,WNW,290,3.0,9.0,41,0.00,,,0.01,834.000000,,2013-07-29 20:49:00,
2013-07-29 15:58:00,76.0,51.0,-100.00,WNW,290,3.0,9.0,41,0.00,,,0.01,834.000000,,2013-07-29 20:58:00,
2013-07-29 16:05:00,76.0,51.0,-100.00,WNW,290,3.0,9.0,41,0.00,,,0.01,834.000000,,2013-07-29 21:05:00,
2013-07-29 16:13:00,75.0,50.0,-100.00,NW,311,4.0,9.0,41,0.00,,,0.00,692.000000,,2013-07-29 21:13:00,
2013-07-29 16:49:00,75.0,50.0,-100.00,NW,311,4.0,9.0,41,0.00,,,0.00,692.000000,,2013-07-29 21:49:00,
2013-07-29 17:00:00,75.0,50.0,-100.00,NW,311,4.0,9.0,41,0.00,,,0.00,692.000000,,2013-07-29 22:00:00,
2013-07-29 17:13:00,75.0,53.0,-100.00,NNW,345,2.0,6.0,47,0.00,,,0.00,361.000000,,2013-07-29 22:13:00,
2013-07-29 17:57:00,75.0,53.0,-100.00,NNW,345,2.0,6.0,47,0.00,,,0.00,361.000000,,2013-07-29 22:57:00,
2013-07-29 18:05:00,75.0,53.0,-100.00,NNW,345,2.0,6.0,47,0.00,,,0.00,361.000000,,2013-07-29 23:05:00,
2013-07-29 18:47:00,73.0,53.0,-100.00,NE,39,2.0,6.0,50,0.00,,,0.00,289.000000,,2013-07-29 23:47:00,
2013-07-29 18:57:00,73.0,53.0,-100.00,NE,39,2.0,6.0,50,0.00,,,0.00,289.000000,,2013-07-29 23:57:00,
2013-07-29 19:08:00,73.0,53.0,-100.00,NE,39,2.0,6.0,50,0.00,,,0.00,289.000000,,2013-07-30 00:08:00,
2013-07-29 19:13:00,69.0,57.0,-100.00,North,3,1.0,3.0,66,0.00,,,0.00,152.000000,,2013-07-30 00:13:00,
2013-07-29 19:35:00,69.0,57.0,-100.00,North,3,1.0,3.0,66,0.00,,,0.00,152.000000,,2013-07-30 00:35:00,
2013-07-29 19:51:00,69.0,57.0,-100.00,North,3,1.0,3.0,66,0.00,,,0.00,152.000000,,2013-07-30 00:51:00,
2013-07-29 20:06:00,69.0,57.0,-100.00,North,3,1.0,3.0,66,0.00,,,0.00,152.000000,,2013-07-30 01:06:00,
2013-07-29 20:13:00,62.0,55.0,-100.00,NNE,31,0.0,2.0,79,0.00,,,0.00,22.000000,,2013-07-30 01:13:00,
2013-07-29 20:38:00,62.0,55.0,-100.00,NNE,31,0.0,2.0,79,0.00,,,0.00,22.000000,,2013-07-30 01:38:00,
2013-07-29 20:46:00,62.0,55.0,-100.00,NNE,31,0.0,2.0,79,0.00,,,0.00,22.000000,,2013-07-30 01:46:00,
2013-07-29 21:00:00,62.0,55.0,-100.00,NNE,31,0.0,2.0,79,0.00,,,0.00,22.000000,,2013-07-30 02:00:00,
2013-07-29 21:05:00,62.0,55.0,-100.00,NNE,31,0.0,2.0,79,0.00,,,0.00,22.000000,,2013-07-30 02:05:00,
2013-07-29 21:13:00,57.0,55.0,-100.00,ENE,60,0.0,6.0,92,0.00,,,0.00,2.000000,,2013-07-30 02:13:00,
2013-07-29 21:56:00,57.0,55.0,-100.00,ENE,60,0.0,6.0,92,0.00,,,0.00,2.000000,,2013-07-30 02:56:00,
2013-07-29 22:08:00,57.0,55.0,-100.00,ENE,60,0.0,6.0,92,0.00,,,0.00,2.000000,,2013-07-30 03:08:00,
2013-07-29 22:13:00,54.0,53.0,-100.00,NNE,16,0.0,2.0,96,0.00,,,0.00,0.000000,,2013-07-30 03:13:00,
2013-07-29 22:48:00,54.0,53.0,-100.00,NNE,16,0.0,2.0,96,0.00,,,0.00,0.000000,,2013-07-30 03:48:00,
2013-07-29 22:56:00,54.0,53.0,-100.00,NNE,16,0.0,2.0,96,0.00,,,0.00,0.000000,,2013-07-30 03:56:00,
2013-07-29 23:03:00,54.0,53.0,-100.00,NNE,16,0.0,2.0,96,0.00,,,0.00,0.000000,,2013-07-30 04:03:00,
2013-07-29 23:13:00,51.0,50.0,-100.00,NNE,24,0.0,0.0,97,0.00,,,0.00,0.000000,,2013-07-30 04:13:00,
2013-07-29 23:33:00,51.0,50.0,-100.00,NNE,24,0.0,0.0,97,0.00,,,0.00,0.000000,,2013-07-30 04:33:00,
2013-07-29 23:43:00,51.0,50.0,-100.00,NNE,24,0.0,0.0,97,0.00,,,0.00,0.000000,,2013-07-30 04:43:00,
2013-07-29 23:53:00,51.0,50.0,-100.00,NNE,24,0.0,0.0,97,0.00,,,0.00,0.000000,,2013-07-30 04:53:00,